Time;durP1;ratioP1;P1;durP2;ratioP2;P2;SDS_P1;SDS_P2;PMS_P1;PMS_P2;Temp;Humidity;BMP_temperature;BMP_pressure;BME280_temperature;BME280_humidity;BME280_pressure;Samples;Min_cycle;Max_cycle;Signal;HPM_P1;HPM_P2
2021/12/30 00:02:10;;;;;;;4.70;2.00;;;16.40;99.90;;;;;;6202967;23;20823;-74
2021/12/30 00:04:35;;;;;;;6.28;2.60;;;16.30;99.90;;;;;;6178823;23;20040;-71
2021/12/30 00:07:01;;;;;;;6.65;2.28;;;16.20;99.90;;;;;;6207571;23;20017;-74
2021/12/30 00:09:28;;;;;;;5.80;1.95;;;16.10;99.90;;;;;;6180773;23;20020;-73
2021/12/30 00:11:56;;;;;;;5.75;2.33;;;16.20;99.90;;;;;;6210448;23;20017;-71
2021/12/30 00:14:22;;;;;;;5.22;2.08;;;16.30;99.90;;;;;;6207926;23;22153;-72
2021/12/30 00:16:49;;;;;;;6.65;2.38;;;16.30;99.90;;;;;;6184008;23;20415;-72
2021/12/30 00:19:14;;;;;;;6.97;1.90;;;16.30;99.90;;;;;;6182018;23;20024;-71
2021/12/30 00:21:42;;;;;;;6.43;2.10;;;16.40;99.90;;;;;;6184064;23;20470;-72
2021/12/30 00:24:09;;;;;;;4.57;2.10;;;16.50;99.90;;;;;;6181334;23;20039;-72
2021/12/30 00:26:35;;;;;;;6.30;2.35;;;16.60;99.90;;;;;;6210431;23;20020;-71
2021/12/30 00:29:01;;;;;;;5.00;2.17;;;16.70;99.90;;;;;;6183564;23;20125;-73
2021/12/30 00:31:28;;;;;;;7.10;2.50;;;16.80;99.90;;;;;;6181572;23;20087;-73
2021/12/30 00:33:54;;;;;;;5.38;2.25;;;16.70;99.90;;;;;;6211530;23;20069;-72
2021/12/30 00:36:21;;;;;;;6.55;2.30;;;16.60;99.90;;;;;;6208091;23;20092;-71
2021/12/30 00:38:47;;;;;;;5.80;2.15;;;16.60;99.90;;;;;;6181594;23;20451;-73
2021/12/30 00:41:14;;;;;;;6.15;2.13;;;16.50;99.90;;;;;;6181520;23;20024;-72
2021/12/30 00:43:41;;;;;;;4.47;1.80;;;16.50;99.90;;;;;;6206824;23;20012;-72
2021/12/30 00:46:08;;;;;;;6.25;2.25;;;16.40;99.90;;;;;;6181191;23;20328;-72
2021/12/30 00:48:34;;;;;;;6.72;1.90;;;16.50;99.90;;;;;;6182933;23;20019;-72
2021/12/30 00:51:01;;;;;;;4.72;2.00;;;16.50;99.90;;;;;;6181559;23;20436;-72
2021/12/30 00:53:27;;;;;;;6.05;2.00;;;16.60;99.90;;;;;;6208094;23;20008;-72
2021/12/30 00:55:53;;;;;;;4.40;1.73;;;16.50;99.90;;;;;;6181569;23;20016;-72
2021/12/30 00:58:21;;;;;;;3.63;1.60;;;16.70;99.90;;;;;;6206364;23;20017;-72
2021/12/30 01:00:47;;;;;;;4.40;1.80;;;16.70;99.90;;;;;;6182311;23;20408;-72
2021/12/30 01:03:15;;;;;;;7.85;2.15;;;16.60;99.90;;;;;;6206705;23;20398;-72
2021/12/30 01:05:42;;;;;;;5.20;1.80;;;16.60;99.90;;;;;;6209682;23;20016;-71
2021/12/30 01:08:08;;;;;;;4.32;1.70;;;16.60;99.90;;;;;;6208773;23;20019;-73
2021/12/30 01:10:36;;;;;;;4.10;1.77;;;16.70;99.90;;;;;;6182854;23;20027;-71
2021/12/30 01:13:06;;;;;;;4.72;1.92;;;16.70;99.90;;;;;;6211714;23;20357;-72
2021/12/30 01:15:45;;;;;;;3.78;1.77;;;16.70;99.90;;;;;;6166954;23;20017;-71
2021/12/30 01:18:35;;;;;;;5.90;2.08;;;16.70;99.90;;;;;;6182013;23;20020;-71
2021/12/30 01:21:03;;;;;;;7.72;2.58;;;16.70;99.90;;;;;;6181626;23;20495;-72
2021/12/30 01:23:31;;;;;;;4.90;2.05;;;16.60;99.90;;;;;;6181961;23;20012;-71
2021/12/30 01:25:58;;;;;;;5.18;2.15;;;16.50;99.90;;;;;;6182435;23;20076;-71
2021/12/30 01:28:26;;;;;;;6.43;2.28;;;16.50;99.90;;;;;;6181471;23;20012;-72
2021/12/30 01:30:53;;;;;;;9.27;2.25;;;16.30;99.90;;;;;;6183341;23;20484;-72
2021/12/30 01:33:19;;;;;;;6.03;1.90;;;16.40;99.90;;;;;;6179860;23;20020;-72
2021/12/30 01:35:46;;;;;;;3.83;1.70;;;16.60;99.90;;;;;;6181694;23;20079;-72
2021/12/30 01:38:15;;;;;;;5.93;1.85;;;16.50;99.90;;;;;;6207628;23;20400;-71
2021/12/30 01:40:44;;;;;;;5.88;2.28;;;16.50;99.90;;;;;;6181627;23;20016;-72
2021/12/30 01:43:11;;;;;;;6.07;2.75;;;16.40;99.90;;;;;;6207217;23;20017;-72
2021/12/30 01:45:42;;;;;;;5.22;2.78;;;16.20;99.90;;;;;;6208618;23;20017;-71
2021/12/30 01:48:09;;;;;;;9.80;3.78;;;16.10;99.90;;;;;;6180460;23;20526;-71
2021/12/30 01:50:35;;;;;;;6.72;3.47;;;15.90;99.90;;;;;;6182849;23;20013;-71
2021/12/30 01:53:03;;;;;;;5.90;2.40;;;15.60;99.90;;;;;;6181836;23;20096;-72
2021/12/30 01:55:31;;;;;;;5.32;2.45;;;15.60;99.90;;;;;;6181283;23;20012;-72
2021/12/30 01:57:57;;;;;;;4.95;2.42;;;15.50;99.90;;;;;;6157389;23;20453;-71
2021/12/30 02:00:27;;;;;;;9.35;2.97;;;15.50;99.90;;;;;;6207230;23;20167;-71
2021/12/30 02:02:53;;;;;;;5.82;2.75;;;15.60;99.90;;;;;;6209867;23;20056;-72
2021/12/30 02:05:20;;;;;;;5.05;1.90;;;15.60;99.90;;;;;;6208558;23;20421;-72
2021/12/30 02:07:48;;;;;;;8.15;2.30;;;15.60;99.90;;;;;;6181872;23;20428;-73
2021/12/30 02:10:15;;;;;;;6.53;2.50;;;15.60;99.90;;;;;;6207006;23;20027;-72
2021/12/30 02:12:42;;;;;;;9.88;3.28;;;15.50;99.90;;;;;;6208002;23;20488;-73
2021/12/30 02:15:12;;;;;;;6.50;2.70;;;15.40;99.90;;;;;;6206901;23;20099;-71
2021/12/30 02:17:39;;;;;;;5.43;2.78;;;15.30;99.90;;;;;;6182120;23;20064;-72
2021/12/30 02:20:12;;;;;;;5.70;2.78;;;15.20;99.90;;;;;;6180909;23;20016;-72
2021/12/30 02:22:38;;;;;;;9.95;3.20;;;15.20;99.90;;;;;;6208841;23;20203;-73
2021/12/30 02:25:05;;;;;;;8.63;2.90;;;15.10;99.90;;;;;;6208445;23;20452;-71
2021/12/30 02:27:31;;;;;;;6.70;3.13;;;15.00;99.90;;;;;;6167470;23;20016;-72
2021/12/30 02:29:57;;;;;;;7.68;2.75;;;14.90;99.90;;;;;;6208413;23;20044;-72
2021/12/30 02:32:25;;;;;;;7.45;2.50;;;15.10;99.90;;;;;;6180243;23;20057;-73
2021/12/30 02:34:52;;;;;;;6.55;2.42;;;15.60;99.90;;;;;;6181457;23;20083;-72
2021/12/30 02:37:20;;;;;;;6.72;2.55;;;15.60;99.90;;;;;;6206077;23;20016;-72
2021/12/30 02:39:52;;;;;;;6.88;2.47;;;15.60;99.90;;;;;;6181936;23;20027;-72
2021/12/30 02:42:23;;;;;;;7.35;3.03;;;15.50;99.90;;;;;;6205685;23;20040;-71
2021/12/30 02:44:49;;;;;;;9.68;2.78;;;15.40;99.90;;;;;;6181600;23;20016;-72
2021/12/30 02:47:15;;;;;;;8.05;2.78;;;15.20;99.90;;;;;;6179400;23;20095;-72
2021/12/30 02:49:42;;;;;;;6.95;2.80;;;15.10;99.90;;;;;;6180893;23;20017;-72
2021/12/30 02:52:10;;;;;;;5.65;2.70;;;15.00;99.90;;;;;;6179890;23;20025;-71
2021/12/30 02:54:39;;;;;;;7.82;3.00;;;14.90;99.90;;;;;;6208710;23;20396;-72
2021/12/30 02:57:05;;;;;;;7.63;3.03;;;14.80;99.90;;;;;;6181145;23;20027;-72
2021/12/30 02:59:32;;;;;;;5.30;2.70;;;14.70;99.90;;;;;;6157753;23;20035;-72
2021/12/30 03:01:58;;;;;;;7.55;2.95;;;14.70;99.90;;;;;;6208586;23;20475;-71
2021/12/30 03:04:26;;;;;;;6.35;2.60;;;14.70;99.90;;;;;;6179890;23;20016;-72
2021/12/30 03:06:53;;;;;;;9.75;2.97;;;14.60;99.90;;;;;;6180874;23;20016;-71
2021/12/30 03:09:19;;;;;;;8.60;2.92;;;14.60;99.90;;;;;;6178879;23;20043;-71
2021/12/30 03:11:45;;;;;;;8.23;3.42;;;14.60;99.90;;;;;;6208077;23;20091;-71
2021/12/30 03:14:11;;;;;;;6.90;3.13;;;14.50;99.90;;;;;;6207590;23;20399;-71
2021/12/30 03:16:37;;;;;;;5.93;2.80;;;14.60;99.90;;;;;;6180645;23;20009;-71
2021/12/30 03:19:05;;;;;;;5.10;2.80;;;14.60;99.90;;;;;;6179706;23;20028;-70
2021/12/30 03:21:32;;;;;;;7.47;2.60;;;14.60;99.90;;;;;;6207940;23;20496;-71
2021/12/30 03:23:59;;;;;;;5.97;2.65;;;14.60;99.90;;;;;;6180259;23;20024;-71
2021/12/30 03:26:27;;;;;;;6.47;2.35;;;14.80;99.90;;;;;;6178577;23;20015;-72
2021/12/30 03:28:53;;;;;;;6.10;2.58;;;14.80;99.90;;;;;;6207167;23;20022;-71
2021/12/30 03:31:21;;;;;;;8.30;2.65;;;14.70;99.90;;;;;;6176800;23;20100;-73
2021/12/30 03:33:50;;;;;;;6.15;2.70;;;14.70;99.90;;;;;;6182354;23;20020;-71
2021/12/30 03:36:19;;;;;;;8.23;3.35;;;14.60;99.90;;;;;;6206067;23;20031;-71
2021/12/30 03:38:48;;;;;;;4.95;2.25;;;14.80;99.90;;;;;;6180868;23;20017;-72
2021/12/30 03:41:18;;;;;;;5.90;2.28;;;14.80;99.90;;;;;;6183602;23;20009;-72
2021/12/30 03:43:44;;;;;;;5.00;2.22;;;14.90;99.90;;;;;;6210280;23;20020;-71
2021/12/30 03:46:11;;;;;;;5.72;2.85;;;14.90;99.90;;;;;;6180580;23;20009;-72
2021/12/30 03:48:44;;;;;;;7.82;2.55;;;14.90;99.90;;;;;;6184224;23;20107;-74
2021/12/30 03:51:21;;;;;;;7.13;2.25;;;14.90;99.90;;;;;;6210863;23;20087;-73
2021/12/30 03:53:49;;;;;;;5.20;1.98;;;14.70;99.90;;;;;;6182352;23;20020;-72
2021/12/30 03:56:19;;;;;;;5.15;2.70;;;14.80;99.90;;;;;;6212296;23;20459;-72
2021/12/30 03:58:46;;;;;;;6.90;2.72;;;14.80;99.90;;;;;;6212515;23;20373;-73
2021/12/30 04:01:15;;;;;;;4.80;2.63;;;14.70;99.90;;;;;;6185731;23;20013;-71
2021/12/30 04:03:41;;;;;;;4.60;2.20;;;14.70;99.90;;;;;;6188469;23;20012;-72
2021/12/30 04:06:08;;;;;;;5.90;2.70;;;14.80;99.90;;;;;;6184391;23;20340;-72
2021/12/30 04:08:35;;;;;;;6.63;2.65;;;14.70;99.90;;;;;;6189487;23;20443;-71
2021/12/30 04:11:02;;;;;;;6.75;2.92;;;14.50;99.90;;;;;;6184404;23;20078;-71
2021/12/30 04:13:29;;;;;;;8.98;2.70;;;14.30;99.90;;;;;;6168608;23;20048;-72
2021/12/30 04:15:56;;;;;;;5.80;2.83;;;14.40;99.90;;;;;;6209380;23;20016;-71
2021/12/30 04:18:24;;;;;;;5.35;2.88;;;14.50;99.90;;;;;;6206669;23;20017;-71
2021/12/30 04:20:50;;;;;;;7.57;2.58;;;14.40;99.90;;;;;;6209520;23;20044;-72
2021/12/30 04:23:17;;;;;;;6.32;3.05;;;14.40;99.90;;;;;;6182671;23;20016;-71
2021/12/30 04:25:43;;;;;;;7.80;3.13;;;14.30;99.90;;;;;;6183049;23;20013;-72
2021/12/30 04:28:09;;;;;;;4.70;2.72;;;14.20;99.90;;;;;;6182445;23;20062;-72
2021/12/30 04:30:36;;;;;;;6.43;2.72;;;14.20;99.90;;;;;;6195218;23;20475;-72
2021/12/30 04:33:03;;;;;;;7.75;3.03;;;14.20;99.90;;;;;;6156950;23;20310;-72
2021/12/30 04:35:29;;;;;;;5.40;3.10;;;14.10;99.90;;;;;;6210820;23;20442;-73
2021/12/30 04:37:56;;;;;;;5.95;3.13;;;14.00;99.90;;;;;;6211375;23;20016;-72
2021/12/30 04:40:23;;;;;;;9.30;3.33;;;13.90;99.90;;;;;;6180738;23;20104;-71
2021/12/30 04:42:50;;;;;;;6.55;3.30;;;13.90;99.90;;;;;;6211101;23;20013;-72
2021/12/30 04:45:16;;;;;;;4.70;2.78;;;14.00;99.90;;;;;;6208032;23;20020;-71
2021/12/30 04:47:43;;;;;;;8.25;3.67;;;14.10;99.90;;;;;;6210245;23;20012;-71
2021/12/30 04:50:11;;;;;;;6.45;3.58;;;14.00;99.90;;;;;;6182630;23;20043;-72
2021/12/30 04:52:38;;;;;;;6.90;3.20;;;13.90;99.90;;;;;;6209375;23;20016;-71
2021/12/30 04:55:06;;;;;;;8.93;3.70;;;14.00;99.90;;;;;;6182209;23;20024;-72
2021/12/30 04:57:33;;;;;;;9.05;3.22;;;13.90;99.90;;;;;;6186146;23;20077;-72
2021/12/30 04:59:58;;;;;;;8.63;3.40;;;13.70;99.90;;;;;;6189765;23;20039;-72
2021/12/30 05:02:33;;;;;;;8.25;3.40;;;13.70;99.90;;;;;;6209980;23;20016;-72
2021/12/30 05:04:59;;;;;;;7.38;3.30;;;13.70;99.90;;;;;;6184271;23;20023;-72
2021/12/30 05:07:26;;;;;;;11.05;3.30;;;13.90;99.90;;;;;;6182745;23;20016;-72
2021/12/30 05:09:52;;;;;;;6.93;3.15;;;13.90;99.90;;;;;;6185551;23;20423;-72
2021/12/30 05:12:18;;;;;;;8.70;2.78;;;13.90;99.90;;;;;;6208737;23;20096;-72
2021/12/30 05:14:45;;;;;;;6.82;2.92;;;14.10;99.90;;;;;;6185190;23;20078;-72
2021/12/30 05:17:11;;;;;;;6.47;3.20;;;14.10;99.90;;;;;;6210931;23;20043;-72
2021/12/30 05:19:37;;;;;;;7.38;3.40;;;14.10;99.90;;;;;;6210713;23;20024;-71
2021/12/30 05:22:03;;;;;;;7.80;3.60;;;14.00;99.90;;;;;;6181253;23;20552;-73
2021/12/30 05:24:29;;;;;;;6.53;3.33;;;13.90;99.90;;;;;;6183485;23;20092;-72
2021/12/30 05:26:54;;;;;;;7.45;3.42;;;13.80;99.90;;;;;;6182469;23;20027;-72
2021/12/30 05:29:20;;;;;;;6.07;3.17;;;13.80;99.90;;;;;;6208279;23;20027;-72
2021/12/30 05:31:46;;;;;;;6.70;3.10;;;13.70;99.90;;;;;;6208900;23;20381;-75
2021/12/30 05:34:12;;;;;;;7.07;2.83;;;13.80;99.90;;;;;;6179933;23;20020;-71
2021/12/30 05:36:39;;;;;;;5.97;3.05;;;13.80;99.90;;;;;;6182874;23;20009;-71
2021/12/30 05:39:05;;;;;;;10.50;2.95;;;14.00;99.90;;;;;;6158293;23;20601;-71
2021/12/30 05:41:31;;;;;;;7.32;3.20;;;14.40;99.90;;;;;;6181576;23;20088;-71
2021/12/30 05:43:58;;;;;;;8.38;3.28;;;14.60;99.90;;;;;;6182506;23;20008;-71
2021/12/30 05:46:24;;;;;;;9.43;3.47;;;14.60;99.90;;;;;;6205657;23;20017;-72
2021/12/30 05:48:49;;;;;;;7.72;3.47;;;14.70;99.90;;;;;;6207899;23;20128;-73
2021/12/30 05:51:16;;;;;;;7.30;3.22;;;14.80;99.90;;;;;;6180372;23;20127;-72
2021/12/30 05:53:42;;;;;;;5.13;2.53;;;14.80;99.90;;;;;;6182148;23;20024;-72
2021/12/30 05:56:07;;;;;;;5.65;2.58;;;14.80;99.90;;;;;;6209887;23;20017;-72
2021/12/30 05:58:33;;;;;;;5.47;2.50;;;14.90;99.90;;;;;;6209163;23;20028;-72
2021/12/30 06:01:00;;;;;;;4.55;2.50;;;14.90;99.90;;;;;;6182355;23;20503;-72
2021/12/30 06:03:26;;;;;;;3.95;2.58;;;14.90;99.90;;;;;;6182451;23;20013;-72
2021/12/30 06:05:52;;;;;;;6.03;2.65;;;14.90;99.90;;;;;;6182885;23;20071;-71
2021/12/30 06:08:19;;;;;;;5.03;2.63;;;14.90;99.90;;;;;;6179283;23;20016;-72
2021/12/30 06:10:45;;;;;;;4.13;2.40;;;15.00;99.90;;;;;;6183029;23;20425;-72
2021/12/30 06:13:12;;;;;;;6.05;2.20;;;15.20;99.90;;;;;;6180974;23;20020;-73
2021/12/30 06:15:38;;;;;;;7.10;2.40;;;15.30;99.90;;;;;;6208241;23;20020;-71
2021/12/30 06:18:05;;;;;;;5.18;2.50;;;15.40;99.90;;;;;;6207059;23;20016;-71
2021/12/30 06:20:31;;;;;;;3.97;2.30;;;15.40;99.90;;;;;;6157133;23;20448;-72
2021/12/30 06:22:57;;;;;;;6.30;2.60;;;15.40;99.90;;;;;;6181591;23;20023;-71
2021/12/30 06:25:24;;;;;;;5.00;2.45;;;15.30;99.90;;;;;;6179739;23;20008;-72
2021/12/30 06:27:50;;;;;;;6.63;2.67;;;15.10;99.90;;;;;;6208344;23;20016;-73
2021/12/30 06:30:18;;;;;;;4.80;2.45;;;15.00;99.90;;;;;;6206826;23;20020;-72
2021/12/30 06:32:44;;;;;;;4.90;2.20;;;15.00;99.90;;;;;;6182450;23;20071;-71
2021/12/30 06:35:10;;;;;;;5.60;2.15;;;15.10;99.90;;;;;;6179927;23;20326;-73
2021/12/30 06:37:37;;;;;;;7.93;2.47;;;15.00;99.90;;;;;;6208698;23;20091;-73
2021/12/30 06:40:06;;;;;;;6.38;2.50;;;14.90;99.90;;;;;;6180690;23;20025;-72
2021/12/30 06:42:32;;;;;;;5.70;3.17;;;14.80;99.90;;;;;;6207472;23;20040;-72
2021/12/30 06:44:59;;;;;;;7.60;2.60;;;14.80;99.90;;;;;;6208389;23;20077;-72
2021/12/30 06:47:25;;;;;;;8.18;2.80;;;14.70;99.90;;;;;;6206142;23;20071;-72
2021/12/30 06:49:58;;;;;;;6.57;2.83;;;14.70;99.90;;;;;;6208407;23;20020;-74
2021/12/30 06:52:24;;;;;;;5.75;3.15;;;14.60;99.90;;;;;;6208043;23;20022;-72
2021/12/30 06:54:50;;;;;;;6.47;3.83;;;14.50;99.90;;;;;;6181905;23;20020;-73
2021/12/30 06:57:16;;;;;;;8.10;3.72;;;14.30;99.90;;;;;;6207747;23;20086;-72
2021/12/30 06:59:42;;;;;;;8.15;3.50;;;14.20;99.90;;;;;;6210228;23;20024;-72
2021/12/30 07:02:08;;;;;;;17.17;10.80;;;14.10;99.90;;;;;;6180304;23;20024;-71
2021/12/30 07:04:34;;;;;;;9.05;3.17;;;14.00;99.90;;;;;;6179833;23;20008;-72
2021/12/30 07:07:01;;;;;;;5.47;2.95;;;14.10;99.90;;;;;;6182185;23;20028;-71
2021/12/30 07:09:27;;;;;;;7.90;3.60;;;14.10;99.90;;;;;;6180576;23;20161;-72
2021/12/30 07:11:54;;;;;;;7.30;3.00;;;14.10;99.90;;;;;;6208060;23;20020;-72
2021/12/30 07:14:22;;;;;;;11.15;2.92;;;14.00;99.90;;;;;;6206632;23;20040;-74
2021/12/30 07:16:48;;;;;;;6.25;2.70;;;14.00;99.90;;;;;;6208278;23;20077;-71
2021/12/30 07:19:15;;;;;;;5.53;2.53;;;14.10;99.90;;;;;;6207448;23;20363;-72
2021/12/30 07:21:41;;;;;;;7.68;3.17;;;14.40;99.90;;;;;;6180824;23;20040;-71
2021/12/30 07:24:09;;;;;;;6.88;3.05;;;14.60;99.90;;;;;;6206405;23;20302;-75
2021/12/30 07:26:35;;;;;;;7.88;3.60;;;14.70;99.90;;;;;;6209076;23;20023;-72
2021/12/30 07:29:03;;;;;;;7.20;3.15;;;14.80;99.90;;;;;;6207872;23;20016;-72
2021/12/30 07:31:30;;;;;;;7.88;3.53;;;14.90;99.90;;;;;;6207572;23;20012;-73
2021/12/30 07:33:58;;;;;;;8.77;3.33;;;14.90;99.90;;;;;;6181358;23;20232;-74
2021/12/30 07:36:24;;;;;;;6.32;3.00;;;15.00;99.90;;;;;;6205970;23;20325;-72
2021/12/30 07:38:50;;;;;;;6.72;3.22;;;15.00;99.90;;;;;;6210278;23;20021;-71
2021/12/30 07:41:19;;;;;;;6.45;2.90;;;14.90;99.90;;;;;;6205521;23;20015;-73
2021/12/30 07:43:46;;;;;;;9.52;3.22;;;14.90;99.90;;;;;;6207204;23;20018;-73
2021/12/30 07:46:12;;;;;;;6.90;3.08;;;15.00;99.90;;;;;;6206389;23;20071;-72
2021/12/30 07:48:39;;;;;;;8.38;3.17;;;15.10;99.90;;;;;;6207948;23;20023;-74
2021/12/30 07:51:06;;;;;;;6.38;3.00;;;15.10;99.90;;;;;;6134413;23;20036;-72
2021/12/30 07:53:33;;;;;;;7.78;2.85;;;15.20;99.90;;;;;;6181601;23;20021;-73
2021/12/30 07:56:02;;;;;;;7.45;3.38;;;15.10;99.90;;;;;;6181092;23;20067;-71
2021/12/30 07:58:28;;;;;;;8.90;4.07;;;15.30;99.90;;;;;;6181195;23;20016;-72
2021/12/30 08:00:55;;;;;;;8.73;3.58;;;15.20;99.90;;;;;;6180109;23;20505;-73
2021/12/30 08:03:21;;;;;;;6.43;3.20;;;15.20;99.90;;;;;;6206018;23;20020;-72
2021/12/30 08:05:49;;;;;;;6.45;3.03;;;15.20;99.90;;;;;;6181628;23;20066;-72
2021/12/30 08:08:15;;;;;;;5.78;3.20;;;15.20;99.90;;;;;;6155337;23;20032;-72
2021/12/30 08:10:41;;;;;;;9.05;3.42;;;15.20;99.90;;;;;;6206777;23;20473;-73
2021/12/30 08:13:08;;;;;;;9.32;3.38;;;15.30;99.90;;;;;;6207288;23;20036;-72
2021/12/30 08:15:34;;;;;;;8.95;3.40;;;15.30;99.90;;;;;;6180853;23;20009;-73
2021/12/30 08:18:00;;;;;;;9.55;3.50;;;15.30;99.90;;;;;;6182374;23;20066;-73
2021/12/30 08:20:27;;;;;;;15.77;3.65;;;15.40;99.90;;;;;;6180310;23;20302;-71
2021/12/30 08:22:54;;;;;;;12.18;4.05;;;15.50;99.90;;;;;;6180918;23;20016;-72
2021/12/30 08:25:21;;;;;;;11.15;4.00;;;15.60;99.90;;;;;;6155935;23;20028;-71
2021/12/30 08:27:49;;;;;;;19.67;5.03;;;15.80;99.90;;;;;;6179828;23;20075;-73
2021/12/30 08:30:17;;;;;;;12.32;4.75;;;16.00;99.90;;;;;;6190323;23;20049;-72
2021/12/30 08:32:44;;;;;;;14.77;5.05;;;16.10;99.90;;;;;;6182663;23;20020;-71
2021/12/30 08:35:13;;;;;;;13.60;4.50;;;16.40;99.90;;;;;;6181666;23;20321;-73
2021/12/30 08:37:40;;;;;;;15.77;4.95;;;16.60;99.90;;;;;;6209065;23;20066;-72
2021/12/30 08:40:08;;;;;;;9.70;3.65;;;16.90;99.90;;;;;;6208294;23;20024;-72
2021/12/30 08:42:37;;;;;;;9.07;2.90;;;17.00;99.90;;;;;;6208942;23;20082;-71
2021/12/30 08:45:05;;;;;;;3.97;2.25;;;17.20;99.90;;;;;;6179862;23;20012;-72
2021/12/30 09:10:15;;;;;;;5.28;2.70;;;17.10;99.90;;;;;;6224292;22;1481507;-74
2021/12/30 09:12:43;;;;;;;4.55;3.00;;;17.10;99.90;;;;;;6247148;22;20024;-75
2021/12/30 09:15:13;;;;;;;5.10;2.95;;;17.00;99.90;;;;;;6219830;22;20050;-74
2021/12/30 09:17:42;;;;;;;5.57;2.88;;;17.00;99.90;;;;;;6225197;22;20074;-73
2021/12/30 09:20:09;;;;;;;6.32;3.33;;;16.90;99.90;;;;;;6245619;22;20008;-76
2021/12/30 09:22:36;;;;;;;6.47;3.28;;;16.90;99.90;;;;;;6244734;22;20408;-75
2021/12/30 09:25:06;;;;;;;9.00;2.90;;;16.90;99.90;;;;;;6220195;23;20019;-74
2021/12/30 09:27:34;;;;;;;6.88;3.22;;;16.80;99.90;;;;;;6246507;22;20020;-75
2021/12/30 09:30:01;;;;;;;6.53;3.33;;;16.80;99.90;;;;;;6244941;22;20023;-74
2021/12/30 09:32:28;;;;;;;5.05;2.85;;;16.90;99.90;;;;;;6253800;22;20019;-74
2021/12/30 09:34:53;;;;;;;4.78;3.05;;;17.00;99.90;;;;;;6246631;22;20016;-75
2021/12/30 09:37:19;;;;;;;8.52;3.10;;;17.10;99.90;;;;;;6244899;22;20661;-75
2021/12/30 09:39:46;;;;;;;4.65;2.95;;;17.20;99.90;;;;;;6222166;22;20027;-74
2021/12/30 09:42:14;;;;;;;5.10;2.90;;;17.50;99.90;;;;;;6265952;22;20020;-74
2021/12/30 09:44:41;;;;;;;5.30;3.03;;;17.90;99.90;;;;;;6242185;23;20012;-75
2021/12/30 09:47:08;;;;;;;4.75;2.78;;;18.30;99.90;;;;;;6243985;22;20004;-74
2021/12/30 09:49:34;;;;;;;4.40;2.42;;;18.60;99.90;;;;;;6268431;22;20351;-74
2021/12/30 09:51:59;;;;;;;5.82;2.70;;;18.90;99.90;;;;;;6266804;22;20012;-74
2021/12/30 09:54:25;;;;;;;4.03;2.30;;;19.30;99.90;;;;;;6264521;22;20015;-75
2021/12/30 09:56:54;;;;;;;4.63;2.20;;;19.60;99.90;;;;;;6238968;22;20008;-74
2021/12/30 09:59:23;;;;;;;5.40;2.10;;;19.80;99.90;;;;;;6235348;22;20107;-75
2021/12/30 10:01:50;;;;;;;5.28;2.10;;;20.10;99.90;;;;;;6257128;22;20119;-73
2021/12/30 10:04:16;;;;;;;5.68;2.28;;;20.50;99.80;;;;;;6233423;22;20016;-75
2021/12/30 10:06:48;;;;;;;4.63;2.42;;;20.80;99.40;;;;;;6257504;22;20007;-74
2021/12/30 10:09:17;;;;;;;3.30;2.20;;;21.00;99.10;;;;;;6236175;22;20024;-74
2021/12/30 10:11:53;;;;;;;4.22;2.40;;;21.30;98.60;;;;;;6258129;22;20031;-75
2021/12/30 10:14:32;;;;;;;5.38;2.00;;;21.60;98.30;;;;;;6256404;22;20216;-74
2021/12/30 10:17:24;;;;;;;6.07;2.30;;;21.90;97.90;;;;;;6246258;22;20070;-75
2021/12/30 10:19:51;;;;;;;7.60;3.25;;;22.00;97.50;;;;;;6256567;22;20018;-74
2021/12/30 10:22:23;;;;;;;12.30;3.88;;;21.70;97.80;;;;;;6239900;22;20066;-74
2021/12/30 10:24:51;;;;;;;9.30;3.78;;;20.80;98.60;;;;;;6241554;22;20016;-74
2021/12/30 10:27:25;;;;;;;9.70;3.92;;;21.20;98.70;;;;;;6237630;22;20039;-74
2021/12/30 10:29:52;;;;;;;9.82;3.90;;;20.90;98.70;;;;;;6249921;22;20012;-75
2021/12/30 10:32:25;;;;;;;9.43;3.90;;;20.80;99.10;;;;;;6254611;22;20372;-77
2021/12/30 10:35:11;;;;;;;7.22;3.35;;;21.20;98.80;;;;;;6265326;22;20049;-74
2021/12/30 10:37:42;;;;;;;10.43;3.22;;;21.50;98.60;;;;;;6243141;22;20393;-74
2021/12/30 10:40:31;;;;;;;13.52;4.28;;;21.80;97.90;;;;;;6202508;22;20024;-73
2021/12/30 10:43:19;;;;;;;10.32;3.92;;;22.20;97.50;;;;;;6233968;22;20331;-75
2021/12/30 10:46:08;;;;;;;5.63;3.53;;;22.60;97.40;;;;;;6242607;22;20011;-75
2021/12/30 10:48:44;;;;;;;6.72;3.00;;;23.20;96.70;;;;;;6244367;22;20392;-74
2021/12/30 10:51:31;;;;;;;9.25;3.70;;;23.50;96.30;;;;;;6246785;22;20031;-74
2021/12/30 10:53:59;;;;;;;8.45;2.70;;;23.80;96.20;;;;;;6289421;22;20011;-74
2021/12/30 10:56:27;;;;;;;18.02;4.55;;;23.70;95.90;;;;;;6229968;22;20018;-74
2021/12/30 10:59:10;;;;;;;9.05;4.20;;;23.70;95.90;;;;;;6230063;22;20087;-74
2021/12/30 11:01:43;;;;;;;12.13;5.18;;;24.30;95.60;;;;;;6230722;22;20086;-75
2021/12/30 11:04:10;;;;;;;12.18;4.32;;;24.70;95.10;;;;;;6227590;22;20016;-74
2021/12/30 11:06:39;;;;;;;8.70;3.60;;;24.50;94.80;;;;;;6235950;22;20082;-75
2021/12/30 11:09:19;;;;;;;11.02;3.70;;;24.80;94.60;;;;;;6242421;22;20035;-74
2021/12/30 11:12:06;;;;;;;6.43;3.33;;;25.10;94.70;;;;;;6241225;22;20516;-77
2021/12/30 11:14:36;;;;;;;6.88;3.40;;;25.30;94.20;;;;;;6258987;22;20366;-76
2021/12/30 11:17:20;;;;;;;8.65;4.70;;;25.80;94.00;;;;;;6264047;22;20069;-74
2021/12/30 11:20:08;;;;;;;9.02;4.60;;;26.00;93.50;;;;;;6254093;22;20019;-75
2021/12/30 11:22:38;;;;;;;5.43;3.30;;;25.60;93.70;;;;;;6235637;22;20008;-75
2021/12/30 11:25:14;;;;;;;6.25;3.55;;;25.60;93.50;;;;;;6244722;22;20082;-74
2021/12/30 11:27:42;;;;;;;8.10;4.05;;;25.50;93.60;;;;;;6242194;22;20012;-74
2021/12/30 11:30:18;;;;;;;7.75;3.80;;;25.60;93.60;;;;;;6247548;22;20042;-75
2021/12/30 11:32:48;;;;;;;6.30;3.67;;;25.60;93.40;;;;;;6242360;22;20035;-75
2021/12/30 11:35:20;;;;;;;10.05;3.80;;;25.80;93.20;;;;;;6227694;22;20123;-74
2021/12/30 11:37:46;;;;;;;12.05;5.30;;;25.30;93.40;;;;;;6251627;22;20459;-76
2021/12/30 11:40:17;;;;;;;13.88;6.07;;;25.00;93.60;;;;;;6252096;22;20026;-76
2021/12/30 11:42:53;;;;;;;7.28;5.30;;;25.10;93.70;;;;;;6248551;22;20012;-75
2021/12/30 11:45:34;;;;;;;10.50;5.72;;;24.50;93.90;;;;;;6235956;22;20023;-74
2021/12/30 11:48:25;;;;;;;11.05;5.57;;;24.90;94.00;;;;;;6222399;22;20016;-76
2021/12/30 11:51:11;;;;;;;12.10;5.57;;;25.00;93.50;;;;;;6239278;22;20019;-75
2021/12/30 11:53:38;;;;;;;9.60;5.53;;;24.80;93.80;;;;;;6256937;22;20103;-76
2021/12/30 11:56:21;;;;;;;8.63;5.97;;;25.30;93.50;;;;;;6243074;22;20035;-77
2021/12/30 11:58:53;;;;;;;13.10;5.10;;;25.30;93.30;;;;;;6240956;22;20134;-75
2021/12/30 12:01:21;;;;;;;8.38;4.90;;;25.80;93.20;;;;;;6227327;22;20020;-76
2021/12/30 12:03:55;;;;;;;15.48;5.10;;;26.00;92.80;;;;;;6253368;22;20019;-76
2021/12/30 12:06:32;;;;;;;9.75;5.25;;;26.00;92.90;;;;;;6228306;22;20024;-76
2021/12/30 12:09:13;;;;;;;11.68;5.28;;;26.10;92.80;;;;;;6259830;22;20381;-76
2021/12/30 12:11:57;;;;;;;8.38;4.57;;;26.50;92.50;;;;;;6238918;22;20040;-75
2021/12/30 12:14:54;;;;;;;7.70;3.00;;;26.70;91.80;;;;;;6239873;22;20020;-73
2021/12/30 12:17:43;;;;;;;4.95;2.30;;;26.70;91.60;;;;;;6230792;22;20620;-74
2021/12/30 12:20:20;;;;;;;7.82;2.28;;;26.50;91.70;;;;;;6235582;22;20436;-74
2021/12/30 12:22:46;;;;;;;4.00;2.30;;;27.00;91.30;;;;;;6235983;23;20027;-74
2021/12/30 12:25:22;;;;;;;3.83;2.05;;;27.20;90.90;;;;;;6212426;22;20035;-76
2021/12/30 12:27:52;;;;;;;3.55;2.03;;;27.10;90.90;;;;;;6249630;22;20021;-75
2021/12/30 12:30:29;;;;;;;4.70;2.10;;;27.50;90.90;;;;;;6265325;22;20324;-76
2021/12/30 12:32:58;;;;;;;4.63;2.10;;;27.40;90.60;;;;;;6262851;22;20425;-75
2021/12/30 12:35:27;;;;;;;3.22;2.10;;;27.10;90.70;;;;;;6236092;22;20026;-75
2021/12/30 12:37:59;;;;;;;5.05;2.03;;;27.20;90.80;;;;;;6239051;22;20016;-75
2021/12/30 12:40:27;;;;;;;6.40;2.25;;;27.60;90.40;;;;;;6239270;22;20046;-76
2021/12/30 12:42:57;;;;;;;6.85;3.28;;;28.00;90.30;;;;;;6239170;22;20004;-74
2021/12/30 12:45:53;;;;;;;10.02;4.47;;;28.30;90.10;;;;;;6235933;22;20016;-75
2021/12/30 12:48:25;;;;;;;8.38;4.95;;;28.00;90.00;;;;;;6237327;22;20024;-73
2021/12/30 12:50:58;;;;;;;7.75;4.15;;;28.20;89.90;;;;;;6261431;22;20066;-76
2021/12/30 12:53:38;;;;;;;7.53;4.10;;;28.50;90.00;;;;;;6256907;22;20016;-75
2021/12/30 12:56:12;;;;;;;8.40;4.45;;;29.00;89.60;;;;;;6240768;22;20062;-75
2021/12/30 12:58:51;;;;;;;11.13;5.03;;;29.40;88.40;;;;;;6250826;22;20004;-76
2021/12/30 13:01:23;;;;;;;11.52;5.05;;;29.40;88.00;;;;;;6264765;22;20015;-75
2021/12/30 13:03:51;;;;;;;11.13;4.88;;;29.40;88.70;;;;;;6244923;22;20055;-74
2021/12/30 13:06:26;;;;;;;8.45;5.43;;;29.80;87.60;;;;;;6237689;22;20097;-75
2021/12/30 13:08:54;;;;;;;13.13;5.60;;;29.60;87.40;;;;;;6237676;22;20028;-74
2021/12/30 13:11:34;;;;;;;15.23;5.90;;;30.00;87.10;;;;;;6235543;22;20402;-75
2021/12/30 13:14:01;;;;;;;11.73;5.43;;;30.10;86.90;;;;;;6240079;22;20043;-74
2021/12/30 13:16:28;;;;;;;15.55;5.72;;;30.20;86.00;;;;;;6237578;22;20729;-73
2021/12/30 13:19:18;;;;;;;11.02;5.75;;;29.80;86.70;;;;;;6238084;22;20015;-75